createdAt,value
2019-02-14T00:01:29.327Z,3.10
2019-02-14T00:03:57.747Z,3.30
2019-02-14T00:06:26.158Z,3.40
2019-02-14T00:08:54.663Z,3.10
2019-02-14T00:11:23.092Z,3.20
2019-02-14T00:13:51.487Z,3.20
2019-02-14T00:16:19.919Z,3.30
2019-02-14T00:18:48.327Z,3.40
2019-02-14T00:21:16.754Z,3.30
2019-02-14T00:23:45.167Z,3.20
2019-02-14T00:26:13.605Z,3.00
2019-02-14T00:28:42.076Z,3.00
2019-02-14T00:31:10.489Z,3.10
2019-02-14T00:33:38.911Z,3.20
2019-02-14T00:36:07.324Z,3.30
2019-02-14T00:38:35.774Z,3.30
2019-02-14T00:41:04.265Z,3.10
2019-02-14T00:43:32.686Z,2.50
2019-02-14T00:46:01.099Z,2.10
2019-02-14T00:48:29.530Z,1.80
2019-02-14T00:50:57.985Z,1.90
2019-02-14T00:53:26.394Z,2.10
2019-02-14T00:55:54.829Z,1.90
2019-02-14T00:58:23.247Z,1.90
2019-02-14T01:00:51.738Z,2.20
2019-02-14T01:03:20.244Z,2.40
2019-02-14T01:05:48.814Z,2.50
2019-02-14T01:08:17.223Z,2.30
2019-02-14T01:10:45.637Z,2.40
2019-02-14T01:13:14.078Z,2.10
2019-02-14T01:15:43.374Z,2.00
2019-02-14T01:18:11.779Z,2.40
2019-02-14T01:20:40.256Z,2.60
2019-02-14T01:23:08.719Z,2.80
2019-02-14T01:25:37.137Z,2.80
2019-02-14T01:28:05.622Z,2.80
2019-02-14T01:30:34.204Z,2.80
2019-02-14T01:33:02.638Z,2.20
2019-02-14T01:35:31.051Z,2.00
2019-02-14T01:37:59.471Z,2.10
2019-02-14T01:40:28.034Z,2.20
2019-02-14T01:42:56.448Z,2.50
2019-02-14T01:45:24.875Z,2.50
2019-02-14T01:47:53.290Z,2.50
2019-02-14T01:50:21.724Z,2.40
2019-02-14T01:52:50.171Z,2.30
2019-02-14T01:55:18.648Z,2.40
2019-02-14T01:57:47.042Z,1.70
2019-02-14T02:00:15.996Z,1.30
2019-02-14T02:02:44.428Z,1.20
2019-02-14T02:05:12.883Z,1.10
2019-02-14T02:07:41.680Z,1.00
2019-02-14T02:10:13.454Z,0.90
2019-02-14T02:12:41.878Z,1.30
2019-02-14T02:15:13.258Z,1.70
2019-02-14T02:17:41.948Z,1.90
2019-02-14T02:20:11.647Z,2.10
2019-02-14T02:22:40.544Z,2.10
2019-02-14T02:25:11.619Z,2.10
2019-02-14T02:27:40.151Z,2.00
2019-02-14T02:30:11.573Z,1.10
2019-02-14T02:32:40.356Z,1.20
2019-02-14T02:35:09.817Z,1.50
2019-02-14T02:37:38.296Z,1.70
2019-02-14T02:40:09.147Z,1.90
2019-02-14T02:42:37.732Z,1.60
2019-02-14T02:45:09.646Z,1.30
2019-02-14T02:47:38.375Z,1.00
2019-02-14T02:50:09.578Z,1.10
2019-02-14T02:52:38.079Z,1.20
2019-02-14T02:55:08.759Z,1.40
2019-02-14T02:57:37.172Z,1.60
2019-02-14T03:00:14.735Z,1.80
2019-02-14T03:02:43.207Z,1.90
2019-02-14T03:05:13.471Z,2.00
2019-02-14T03:07:41.947Z,2.10
2019-02-14T03:10:12.610Z,2.10
2019-02-14T03:12:41.058Z,2.00
2019-02-14T03:15:14.067Z,2.10
2019-02-14T03:17:42.621Z,1.80
2019-02-14T03:20:12.492Z,1.80
2019-02-14T03:22:40.927Z,1.30
2019-02-14T03:25:17.956Z,1.10
2019-02-14T03:27:46.386Z,1.50
2019-02-14T03:30:16.139Z,1.60
2019-02-14T03:32:44.544Z,1.60
2019-02-14T03:35:13.106Z,1.10
2019-02-14T03:37:41.510Z,1.10
2019-02-14T03:40:11.982Z,1.20
2019-02-14T03:42:40.386Z,1.50
2019-02-14T03:45:14.759Z,1.60
2019-02-14T03:47:43.247Z,1.70
2019-02-14T03:50:12.891Z,1.80
2019-02-14T03:52:41.320Z,1.50
2019-02-14T03:55:10.889Z,1.70
2019-02-14T03:57:39.694Z,1.70
2019-02-14T04:00:16.323Z,1.80
2019-02-14T04:02:44.815Z,1.80
2019-02-14T04:05:13.509Z,1.60
2019-02-14T04:07:41.902Z,1.70
2019-02-14T04:10:12.468Z,1.70
2019-02-14T04:12:40.898Z,1.60
2019-02-14T04:15:12.090Z,1.60
2019-02-14T04:17:40.512Z,1.60
2019-02-14T04:20:10.184Z,1.50
2019-02-14T04:22:38.671Z,1.50
2019-02-14T04:25:08.834Z,1.50
2019-02-14T04:27:37.352Z,1.60
2019-02-14T04:30:09.092Z,1.60
2019-02-14T04:32:37.503Z,1.50
2019-02-14T04:35:06.183Z,1.50
2019-02-14T04:37:34.614Z,1.50
2019-02-14T04:40:03.507Z,1.40
2019-02-14T04:42:32.023Z,1.40
2019-02-14T04:45:00.446Z,1.40
2019-02-14T04:47:28.878Z,1.30
2019-02-14T04:49:57.325Z,1.30
2019-02-14T04:52:25.725Z,0.70
2019-02-14T04:54:54.143Z,0.90
2019-02-14T04:57:23.024Z,1.10
2019-02-14T04:59:51.431Z,0.90
2019-02-14T05:02:19.919Z,0.90
2019-02-14T05:04:48.347Z,0.90
2019-02-14T05:07:16.767Z,0.90
2019-02-14T05:09:45.212Z,1.00
2019-02-14T05:12:13.627Z,1.10
2019-02-14T05:14:42.067Z,1.10
2019-02-14T05:17:10.514Z,1.00
2019-02-14T05:19:38.945Z,1.00
2019-02-14T05:22:07.446Z,1.20
2019-02-14T05:24:35.881Z,1.20
2019-02-14T05:27:04.382Z,1.00
2019-02-14T05:29:32.824Z,0.80
2019-02-14T05:32:01.311Z,1.00
2019-02-14T05:34:29.710Z,1.20
2019-02-14T05:36:58.127Z,1.10
2019-02-14T05:39:26.545Z,0.90
2019-02-14T05:41:54.959Z,0.90
2019-02-14T05:44:23.399Z,0.90
2019-02-14T05:46:51.907Z,1.00
2019-02-14T05:49:20.346Z,1.10
2019-02-14T05:51:48.787Z,1.20
2019-02-14T05:54:17.211Z,1.30
2019-02-14T05:56:45.738Z,1.30
2019-02-14T05:59:14.416Z,1.40
2019-02-14T06:01:42.847Z,1.40
2019-02-14T06:04:11.255Z,0.90
2019-02-14T06:06:39.666Z,1.10
2019-02-14T06:09:08.099Z,0.90
2019-02-14T06:11:36.526Z,1.00
2019-02-14T06:14:05.029Z,1.10
2019-02-14T06:16:33.454Z,1.10
2019-02-14T06:19:01.857Z,1.30
2019-02-14T06:21:30.290Z,1.30
2019-02-14T06:23:58.725Z,1.30
2019-02-14T06:26:27.134Z,1.30
2019-02-14T06:28:55.566Z,1.40
2019-02-14T06:31:23.993Z,1.30
2019-02-14T06:33:52.439Z,1.10
2019-02-14T06:36:20.882Z,1.10
2019-02-14T06:38:49.430Z,0.90
2019-02-14T06:41:17.853Z,1.10
2019-02-14T06:43:46.291Z,1.30
2019-02-14T06:46:14.722Z,1.40
2019-02-14T06:48:43.127Z,1.40
2019-02-14T06:51:11.570Z,1.50
2019-02-14T06:53:39.980Z,1.50
2019-02-14T06:56:08.410Z,1.50
2019-02-14T06:58:36.931Z,1.30
2019-02-14T07:01:05.410Z,1.40
2019-02-14T07:03:33.911Z,1.20
2019-02-14T07:06:02.318Z,1.40
2019-02-14T07:08:30.746Z,1.50
2019-02-14T07:10:59.186Z,1.50
2019-02-14T07:13:27.690Z,1.60
2019-02-14T07:15:56.118Z,1.60
2019-02-14T07:18:24.534Z,1.60
2019-02-14T07:20:52.978Z,1.60
2019-02-14T07:23:21.400Z,1.60
2019-02-14T07:25:49.864Z,1.60
2019-02-14T07:28:18.293Z,1.70
2019-02-14T07:30:46.714Z,1.50
2019-02-14T07:33:15.129Z,1.30
2019-02-14T07:35:43.559Z,1.50
2019-02-14T07:38:11.982Z,1.70
2019-02-14T07:40:40.412Z,1.70
2019-02-14T07:43:08.822Z,1.90
2019-02-14T07:45:37.292Z,2.00
2019-02-14T07:48:05.702Z,2.20
2019-02-14T07:50:34.202Z,2.40
2019-02-14T07:53:02.643Z,2.50
2019-02-14T07:55:31.070Z,2.70
2019-02-14T07:57:59.479Z,2.80
2019-02-14T08:00:27.902Z,2.90
2019-02-14T08:02:56.503Z,3.10
2019-02-14T08:05:25.023Z,3.20
2019-02-14T08:07:53.424Z,3.30
2019-02-14T08:10:22.170Z,3.40
2019-02-14T08:12:50.578Z,3.00
2019-02-14T08:15:19.098Z,3.00
2019-02-14T08:17:47.591Z,3.20
2019-02-14T08:20:21.246Z,3.50
2019-02-14T08:22:49.704Z,3.60
2019-02-14T08:25:18.106Z,3.50
2019-02-14T08:27:46.759Z,3.70
2019-02-14T08:30:17.478Z,4.10
2019-02-14T08:32:45.916Z,4.30
2019-02-14T08:35:14.503Z,4.50
2019-02-14T08:37:45.635Z,4.90
2019-02-14T08:40:22.054Z,5.20
2019-02-14T08:42:50.476Z,5.40
2019-02-14T08:45:19.009Z,5.60
2019-02-14T08:47:47.522Z,5.90
2019-02-14T08:50:16.043Z,6.10
2019-02-14T08:52:44.546Z,6.40
2019-02-14T08:55:13.110Z,6.80
2019-02-14T08:57:41.514Z,7.00
2019-02-14T09:00:13.062Z,7.00
2019-02-14T09:02:41.564Z,7.20
2019-02-14T09:05:10.071Z,7.20
2019-02-14T09:07:38.497Z,6.80
2019-02-14T09:10:10.151Z,6.50
2019-02-14T09:12:38.559Z,6.40
2019-02-14T09:15:09.831Z,6.30
2019-02-14T09:17:38.327Z,6.40
2019-02-14T09:20:12.070Z,6.30
2019-02-14T09:22:40.502Z,6.40
2019-02-14T09:25:09.131Z,6.40
2019-02-14T09:27:37.558Z,6.40
2019-02-14T09:30:08.831Z,6.30
2019-02-14T09:32:37.514Z,6.30
2019-02-14T09:35:08.091Z,6.30
2019-02-14T09:37:36.575Z,6.40
2019-02-14T09:40:11.254Z,6.50
2019-02-14T09:42:39.671Z,6.60
2019-02-14T09:45:10.867Z,6.80
2019-02-14T09:47:39.444Z,6.90
2019-02-14T09:50:12.847Z,7.00
2019-02-14T09:52:41.950Z,7.30
2019-02-14T09:55:12.423Z,7.40
2019-02-14T10:00:20.032Z,7.50
2019-02-14T10:02:48.504Z,7.60
2019-02-14T10:05:17.146Z,7.90
2019-02-14T10:07:45.571Z,8.10
2019-02-14T10:10:17.067Z,8.30
2019-02-14T10:12:45.502Z,8.70
2019-02-14T10:15:14.044Z,9.20
2019-02-14T10:17:42.546Z,9.50
2019-02-14T10:20:13.530Z,9.90
2019-02-14T10:22:41.947Z,9.90
2019-02-14T10:25:11.218Z,9.90
2019-02-14T10:27:39.642Z,10.10
2019-02-14T10:30:11.160Z,10.20
2019-02-14T10:32:39.635Z,10.50
2019-02-14T10:35:08.117Z,10.70
2019-02-14T10:37:36.567Z,10.80
2019-02-14T10:40:13.286Z,10.60
2019-02-14T10:42:41.766Z,10.10
2019-02-14T10:45:12.822Z,10.00
2019-02-14T10:47:41.235Z,10.10
2019-02-14T10:50:11.187Z,10.30
2019-02-14T10:52:39.636Z,10.30
2019-02-14T10:55:10.359Z,10.20
2019-02-14T10:57:38.776Z,10.20
2019-02-14T11:00:16.999Z,10.10
2019-02-14T11:02:45.875Z,10.20
2019-02-14T11:05:15.348Z,10.50
2019-02-14T11:07:43.843Z,10.80
2019-02-14T11:10:16.330Z,11.00
2019-02-14T11:12:44.781Z,11.20
2019-02-14T11:15:19.135Z,11.50
2019-02-14T11:17:49.005Z,11.50
2019-02-14T11:20:18.053Z,11.50
2019-02-14T11:22:48.761Z,11.50
2019-02-14T11:25:29.049Z,11.70
2019-02-14T11:27:57.495Z,12.00
2019-02-14T11:30:25.939Z,12.00
2019-02-14T11:32:54.384Z,11.80
2019-02-14T11:35:22.831Z,11.60
2019-02-14T11:37:51.243Z,11.40
2019-02-14T11:40:19.686Z,11.30
2019-02-14T11:42:48.127Z,11.30
2019-02-14T11:45:21.635Z,11.20
2019-02-14T11:47:50.047Z,11.30
2019-02-14T11:50:19.859Z,11.30
2019-02-14T11:52:48.299Z,11.10
2019-02-14T11:55:16.726Z,11.10
2019-02-14T11:57:45.175Z,11.00
2019-02-14T12:00:27.818Z,10.90
2019-02-14T12:02:56.505Z,10.70
2019-02-14T12:05:25.117Z,10.60
2019-02-14T12:07:53.561Z,10.70
2019-02-14T12:10:21.987Z,11.10
2019-02-14T12:12:50.499Z,11.40
2019-02-14T12:15:19.011Z,11.90
2019-02-14T12:17:47.527Z,12.00
2019-02-14T12:20:19.147Z,12.40
2019-02-14T12:22:47.590Z,12.20
2019-02-14T12:25:27.656Z,12.10
2019-02-14T12:27:56.103Z,11.90
2019-02-14T12:30:24.519Z,12.00
2019-02-14T12:32:52.934Z,12.10
2019-02-14T12:35:21.380Z,12.50
2019-02-14T12:37:49.864Z,12.10
2019-02-14T12:40:18.347Z,11.70
2019-02-14T12:42:46.860Z,11.50
2019-02-14T12:45:21.729Z,11.30
2019-02-14T12:47:48.658Z,11.20
2019-02-14T12:50:17.135Z,11.30
2019-02-14T12:52:45.559Z,11.20
2019-02-14T12:55:14.121Z,11.20
2019-02-14T12:57:42.570Z,11.30
2019-02-14T13:00:17.035Z,11.40
2019-02-14T13:02:45.474Z,11.50
2019-02-14T13:05:13.910Z,11.50
2019-02-14T13:07:42.338Z,11.50
2019-02-14T13:10:13.029Z,11.50
2019-02-14T13:12:41.451Z,11.30
2019-02-14T13:15:21.223Z,10.90
2019-02-14T13:17:49.671Z,10.60
2019-02-14T13:20:18.215Z,10.60
2019-02-14T13:22:46.631Z,10.70
2019-02-14T13:25:15.127Z,10.90
2019-02-14T13:27:43.582Z,11.00
2019-02-14T13:30:15.206Z,11.00
2019-02-14T13:32:43.631Z,11.00
2019-02-14T13:35:12.067Z,11.00
2019-02-14T13:37:40.649Z,11.00
2019-02-14T13:40:09.619Z,11.00
2019-02-14T13:42:38.034Z,11.10
2019-02-14T13:45:09.575Z,11.10
2019-02-14T13:47:38.014Z,11.00
2019-02-14T13:50:09.279Z,11.10
2019-02-14T13:52:37.728Z,11.00
2019-02-14T13:55:08.215Z,10.90
2019-02-14T13:57:36.694Z,11.00
2019-02-14T14:00:19.658Z,11.00
2019-02-14T14:02:48.108Z,11.10
2019-02-14T14:05:16.783Z,11.20
2019-02-14T14:07:45.351Z,11.10
2019-02-14T14:10:13.800Z,11.20
2019-02-14T14:12:42.533Z,11.20
2019-02-14T14:15:12.110Z,11.10
2019-02-14T14:17:40.547Z,11.20
2019-02-14T14:20:09.900Z,11.20
2019-02-14T14:22:38.427Z,11.10
2019-02-14T14:25:08.594Z,11.30
2019-02-14T14:27:37.127Z,11.20
2019-02-14T14:30:13.659Z,11.30
2019-02-14T14:32:42.079Z,11.30
2019-02-14T14:35:11.380Z,11.20
2019-02-14T14:37:40.420Z,11.30
2019-02-14T14:40:20.321Z,11.30
2019-02-14T14:42:53.166Z,11.20
2019-02-14T14:45:39.607Z,11.20
2019-02-14T14:48:19.001Z,11.00
2019-02-14T14:50:39.830Z,11.10
2019-02-14T14:53:08.287Z,11.10
2019-02-14T14:55:36.723Z,11.00
2019-02-14T14:58:05.158Z,10.90
2019-02-14T15:00:33.614Z,11.00
2019-02-14T15:03:02.059Z,10.90
2019-02-14T15:05:30.544Z,10.80
2019-02-14T15:07:58.990Z,11.00
2019-02-14T15:10:27.423Z,10.70
2019-02-14T15:12:55.860Z,10.70
2019-02-14T15:15:24.289Z,10.70
2019-02-14T15:17:52.702Z,10.60
2019-02-14T15:20:21.175Z,10.60
2019-02-14T15:22:49.592Z,10.60
2019-02-14T15:25:18.028Z,10.40
2019-02-14T15:27:46.453Z,10.40
2019-02-14T15:30:14.973Z,10.40
2019-02-14T15:32:43.415Z,10.40
2019-02-14T15:35:11.846Z,10.40
2019-02-14T15:37:42.011Z,10.40
2019-02-14T15:40:10.679Z,10.40
2019-02-14T15:42:39.133Z,10.40
2019-02-14T15:45:08.603Z,10.50
2019-02-14T15:47:37.073Z,10.50
2019-02-14T15:50:08.967Z,10.50
2019-02-14T15:52:37.549Z,10.50
2019-02-14T15:55:07.403Z,10.40
2019-02-14T15:57:35.850Z,10.50
2019-02-14T16:00:07.994Z,10.40
2019-02-14T16:02:36.307Z,10.40
2019-02-14T16:05:05.782Z,10.30
2019-02-14T16:07:34.218Z,10.10
2019-02-14T16:10:03.766Z,10.10
2019-02-14T16:12:32.955Z,10.00
2019-02-14T16:15:01.405Z,9.80
2019-02-14T16:17:29.886Z,9.60
2019-02-14T16:19:59.753Z,9.40
2019-02-14T16:22:30.031Z,9.40
2019-02-14T16:24:58.371Z,9.30
2019-02-14T16:27:26.974Z,9.00
2019-02-14T16:29:55.445Z,8.80
2019-02-14T16:32:23.894Z,8.70
2019-02-14T16:34:52.315Z,8.70
2019-02-14T16:37:20.803Z,8.60
2019-02-14T16:39:51.746Z,8.50
2019-02-14T16:42:19.447Z,8.50
2019-02-14T16:44:47.866Z,8.30
2019-02-14T16:47:16.282Z,8.20
2019-02-14T16:49:44.768Z,8.00
2019-02-14T16:52:13.284Z,7.90
2019-02-14T16:54:41.722Z,7.80
2019-02-14T16:57:10.128Z,7.70
2019-02-14T16:59:38.601Z,7.60
2019-02-14T17:02:07.079Z,7.40
2019-02-14T17:04:35.511Z,7.50
2019-02-14T17:07:04.003Z,7.40
2019-02-14T17:09:32.502Z,7.20
2019-02-14T17:12:00.957Z,7.20
2019-02-14T17:14:29.365Z,7.20
2019-02-14T17:16:57.812Z,6.90
2019-02-14T17:19:26.234Z,6.80
2019-02-14T17:21:54.668Z,6.70
2019-02-14T17:24:23.075Z,6.80
2019-02-14T17:26:51.490Z,6.60
2019-02-14T17:29:19.954Z,6.60
2019-02-14T17:31:48.362Z,6.70
2019-02-14T17:34:16.795Z,6.70
2019-02-14T17:36:45.227Z,6.30
2019-02-14T17:39:13.715Z,6.40
2019-02-14T17:41:42.173Z,6.10
2019-02-14T17:44:10.611Z,6.30
2019-02-14T17:46:39.046Z,6.30
2019-02-14T17:49:07.535Z,6.40
2019-02-14T17:51:36.055Z,6.40
2019-02-14T17:54:04.564Z,6.40
2019-02-14T17:56:32.994Z,6.30
2019-02-14T17:59:01.969Z,6.20
2019-02-14T18:01:30.469Z,6.00
2019-02-14T18:03:58.875Z,5.90
2019-02-14T18:06:27.296Z,5.90
2019-02-14T18:08:55.747Z,5.80
2019-02-14T18:11:24.167Z,5.70
2019-02-14T18:13:52.634Z,5.50
2019-02-14T18:16:21.040Z,5.50
2019-02-14T18:18:49.479Z,5.60
2019-02-14T18:21:17.911Z,5.70
2019-02-14T18:23:46.395Z,5.50
2019-02-14T18:26:14.894Z,5.50
2019-02-14T18:28:43.339Z,5.50
2019-02-14T18:31:11.877Z,5.50
2019-02-14T18:33:40.326Z,5.40
2019-02-14T18:36:08.741Z,5.40
2019-02-14T18:38:37.256Z,5.30
2019-02-14T18:41:05.704Z,5.30
2019-02-14T18:43:34.149Z,5.20
2019-02-14T18:46:02.644Z,5.20
2019-02-14T18:48:31.075Z,5.10
2019-02-14T18:50:59.548Z,5.10
2019-02-14T18:53:27.984Z,5.10
2019-02-14T18:55:56.426Z,5.10
2019-02-14T18:58:26.672Z,4.90
2019-02-14T19:00:55.000Z,4.90
2019-02-14T19:03:23.448Z,4.90
2019-02-14T19:05:51.864Z,4.80
2019-02-14T19:08:20.326Z,4.80
2019-02-14T19:10:48.751Z,4.80
2019-02-14T19:13:18.813Z,4.70
2019-02-14T19:15:47.500Z,4.70
2019-02-14T19:18:15.921Z,4.60
2019-02-14T19:20:44.365Z,4.60
2019-02-14T19:23:23.341Z,4.50
2019-02-14T19:25:42.942Z,4.30
2019-02-14T19:28:11.469Z,4.30
2019-02-14T19:30:39.869Z,4.40
2019-02-14T19:33:08.335Z,4.10
2019-02-14T19:35:36.747Z,4.10
2019-02-14T19:38:05.289Z,4.30
2019-02-14T19:40:33.756Z,4.30
2019-02-14T19:43:02.263Z,4.20
2019-02-14T19:45:36.726Z,4.20
2019-02-14T19:48:00.854Z,4.20
2019-02-14T19:50:29.271Z,4.30
2019-02-14T19:52:57.704Z,4.30
2019-02-14T19:55:26.178Z,4.30
2019-02-14T19:57:54.584Z,4.10
2019-02-14T20:00:23.036Z,4.10
2019-02-14T20:02:51.464Z,4.10
2019-02-14T20:05:19.882Z,4.10
2019-02-14T20:07:48.367Z,4.10
2019-02-14T20:10:16.938Z,4.00
2019-02-14T20:12:45.373Z,4.00
2019-02-14T20:15:15.982Z,3.90
2019-02-14T20:17:44.411Z,3.90
2019-02-14T20:20:12.825Z,3.90
2019-02-14T20:22:41.286Z,3.80
2019-02-14T20:25:15.535Z,3.70
2019-02-14T20:27:44.114Z,3.30
2019-02-14T20:30:12.555Z,3.50
2019-02-14T20:32:40.954Z,3.60
2019-02-14T20:35:09.763Z,3.60
2019-02-14T20:37:38.211Z,3.60
2019-02-14T20:40:09.323Z,3.50
2019-02-14T20:42:37.863Z,3.50
2019-02-14T20:45:09.330Z,3.50
2019-02-14T20:47:37.815Z,3.50
2019-02-14T20:50:09.347Z,3.40
2019-02-14T20:52:37.836Z,3.40
2019-02-14T20:55:09.587Z,3.40
2019-02-14T20:57:38.016Z,3.40
2019-02-14T21:00:11.224Z,3.40
2019-02-14T21:02:39.654Z,3.30
2019-02-14T21:05:08.221Z,3.30
2019-02-14T21:07:36.631Z,3.30
2019-02-14T21:10:06.890Z,3.30
2019-02-14T21:12:35.408Z,3.20
2019-02-14T21:15:04.594Z,3.20
2019-02-14T21:17:33.051Z,3.20
2019-02-14T21:20:01.539Z,3.10
2019-02-14T21:22:29.997Z,3.10
2019-02-14T21:24:58.422Z,3.10
2019-02-14T21:27:26.928Z,3.00
2019-02-14T21:29:55.367Z,3.00
2019-02-14T21:32:23.844Z,3.00
2019-02-14T21:34:52.271Z,3.00
2019-02-14T21:37:20.791Z,2.90
2019-02-14T21:39:49.386Z,3.00
2019-02-14T21:42:21.717Z,3.00
2019-02-14T21:44:47.958Z,2.90
2019-02-14T21:47:16.457Z,2.90
2019-02-14T21:49:45.006Z,2.80
2019-02-14T21:52:13.507Z,2.80
2019-02-14T21:54:41.910Z,2.70
2019-02-14T21:57:10.490Z,2.80
2019-02-14T21:59:39.272Z,2.80
2019-02-14T22:02:07.679Z,2.80
2019-02-14T22:04:36.121Z,2.70
2019-02-14T22:07:04.924Z,2.60
2019-02-14T22:09:33.489Z,2.40
2019-02-14T22:12:01.920Z,2.50
2019-02-14T22:14:30.451Z,2.40
2019-02-14T22:16:58.879Z,2.40
2019-02-14T22:19:27.274Z,2.50
2019-02-14T22:21:55.731Z,2.50
2019-02-14T22:24:24.154Z,2.50
2019-02-14T22:26:52.578Z,2.50
2019-02-14T22:29:21.091Z,2.50
2019-02-14T22:31:49.481Z,2.40
2019-02-14T22:34:17.921Z,2.40
2019-02-14T22:36:46.411Z,2.40
2019-02-14T22:39:14.850Z,2.40
2019-02-14T22:41:43.332Z,2.30
2019-02-14T22:44:11.860Z,2.30
2019-02-14T22:46:40.316Z,2.30
2019-02-14T22:49:08.719Z,2.30
2019-02-14T22:51:37.142Z,2.20
2019-02-14T22:54:05.547Z,2.20
2019-02-14T22:56:33.973Z,2.20
2019-02-14T22:59:02.434Z,2.10
2019-02-14T23:01:31.622Z,2.10
2019-02-14T23:04:00.023Z,2.00
2019-02-14T23:06:28.797Z,2.00
2019-02-14T23:08:57.298Z,2.00
2019-02-14T23:11:25.770Z,2.00
2019-02-14T23:13:54.187Z,2.00
2019-02-14T23:16:22.598Z,1.80
2019-02-14T23:18:51.024Z,1.80
2019-02-14T23:21:19.449Z,1.90
2019-02-14T23:23:47.871Z,1.80
2019-02-14T23:26:16.373Z,1.80
2019-02-14T23:28:44.779Z,1.90
2019-02-14T23:31:13.203Z,1.80
2019-02-14T23:33:41.639Z,1.80
2019-02-14T23:36:10.070Z,1.80
2019-02-14T23:38:38.482Z,1.80
2019-02-14T23:41:06.893Z,1.70
2019-02-14T23:43:35.325Z,1.80
2019-02-14T23:46:03.764Z,1.80
2019-02-14T23:48:32.199Z,1.70
2019-02-14T23:51:00.595Z,1.50
2019-02-14T23:53:29.031Z,1.40
2019-02-14T23:55:57.448Z,1.50
2019-02-14T23:58:25.888Z,1.40
